sensor_id;sensor_type;location;lat;lon;timestamp;P1;durP1;ratioP1;P2;durP2;ratioP2
3068;SDS011;1545;51.728;8.796;2023-06-14T00:02:11;12.33;;;5.57;;
3068;SDS011;1545;51.728;8.796;2023-06-14T00:04:36;9.77;;;5.53;;
3068;SDS011;1545;51.728;8.796;2023-06-14T00:07:04;14.77;;;5.53;;
3068;SDS011;1545;51.728;8.796;2023-06-14T00:09:33;12.67;;;6.10;;
3068;SDS011;1545;51.728;8.796;2023-06-14T00:11:58;10.80;;;5.87;;
3068;SDS011;1545;51.728;8.796;2023-06-14T00:14:23;11.10;;;5.47;;
3068;SDS011;1545;51.728;8.796;2023-06-14T00:16:49;15.53;;;5.70;;
3068;SDS011;1545;51.728;8.796;2023-06-14T00:19:17;18.70;;;5.80;;
3068;SDS011;1545;51.728;8.796;2023-06-14T00:21:42;9.53;;;5.47;;
3068;SDS011;1545;51.728;8.796;2023-06-14T00:24:08;12.47;;;5.10;;
3068;SDS011;1545;51.728;8.796;2023-06-14T00:26:33;9.60;;;5.00;;
3068;SDS011;1545;51.728;8.796;2023-06-14T00:28:59;7.63;;;5.40;;
3068;SDS011;1545;51.728;8.796;2023-06-14T00:31:24;11.37;;;5.40;;
3068;SDS011;1545;51.728;8.796;2023-06-14T00:33:50;9.87;;;4.83;;
3068;SDS011;1545;51.728;8.796;2023-06-14T00:36:16;21.67;;;6.10;;
3068;SDS011;1545;51.728;8.796;2023-06-14T00:38:41;8.27;;;5.20;;
3068;SDS011;1545;51.728;8.796;2023-06-14T00:41:07;13.60;;;5.57;;
3068;SDS011;1545;51.728;8.796;2023-06-14T00:43:32;7.37;;;5.13;;
3068;SDS011;1545;51.728;8.796;2023-06-14T00:45:59;12.90;;;5.10;;
3068;SDS011;1545;51.728;8.796;2023-06-14T00:48:25;10.87;;;5.30;;
3068;SDS011;1545;51.728;8.796;2023-06-14T00:50:51;11.63;;;5.03;;
3068;SDS011;1545;51.728;8.796;2023-06-14T00:53:17;17.37;;;5.73;;
3068;SDS011;1545;51.728;8.796;2023-06-14T00:55:43;12.63;;;5.53;;
3068;SDS011;1545;51.728;8.796;2023-06-14T00:58:09;8.13;;;5.53;;
3068;SDS011;1545;51.728;8.796;2023-06-14T01:00:36;7.80;;;5.53;;
3068;SDS011;1545;51.728;8.796;2023-06-14T01:03:01;10.57;;;5.70;;
3068;SDS011;1545;51.728;8.796;2023-06-14T01:05:27;14.93;;;5.70;;
3068;SDS011;1545;51.728;8.796;2023-06-14T01:08:13;12.67;;;5.67;;
3068;SDS011;1545;51.728;8.796;2023-06-14T01:10:52;10.00;;;5.97;;
3068;SDS011;1545;51.728;8.796;2023-06-14T01:13:35;10.67;;;5.33;;
3068;SDS011;1545;51.728;8.796;2023-06-14T01:16:03;15.47;;;5.13;;
3068;SDS011;1545;51.728;8.796;2023-06-14T01:18:31;20.47;;;5.50;;
3068;SDS011;1545;51.728;8.796;2023-06-14T01:20:58;8.60;;;5.23;;
3068;SDS011;1545;51.728;8.796;2023-06-14T01:23:24;13.40;;;5.07;;
3068;SDS011;1545;51.728;8.796;2023-06-14T01:25:50;23.93;;;5.27;;
3068;SDS011;1545;51.728;8.796;2023-06-14T01:28:17;10.23;;;5.90;;
3068;SDS011;1545;51.728;8.796;2023-06-14T01:30:46;9.70;;;5.33;;
3068;SDS011;1545;51.728;8.796;2023-06-14T01:33:23;8.27;;;5.27;;
3068;SDS011;1545;51.728;8.796;2023-06-14T01:35:51;10.27;;;5.00;;
3068;SDS011;1545;51.728;8.796;2023-06-14T01:38:19;10.13;;;5.33;;
3068;SDS011;1545;51.728;8.796;2023-06-14T01:40:47;8.73;;;5.30;;
3068;SDS011;1545;51.728;8.796;2023-06-14T01:43:13;11.17;;;5.67;;
3068;SDS011;1545;51.728;8.796;2023-06-14T01:45:40;10.17;;;5.07;;
3068;SDS011;1545;51.728;8.796;2023-06-14T01:48:07;14.57;;;5.70;;
3068;SDS011;1545;51.728;8.796;2023-06-14T01:50:33;9.00;;;5.50;;
3068;SDS011;1545;51.728;8.796;2023-06-14T01:52:59;21.90;;;6.30;;
3068;SDS011;1545;51.728;8.796;2023-06-14T01:55:25;10.40;;;5.50;;
3068;SDS011;1545;51.728;8.796;2023-06-14T01:57:51;12.50;;;6.20;;
3068;SDS011;1545;51.728;8.796;2023-06-14T02:00:17;13.93;;;5.87;;
3068;SDS011;1545;51.728;8.796;2023-06-14T02:02:43;13.60;;;5.30;;
3068;SDS011;1545;51.728;8.796;2023-06-14T02:05:08;18.57;;;6.03;;
3068;SDS011;1545;51.728;8.796;2023-06-14T02:07:35;8.80;;;5.70;;
3068;SDS011;1545;51.728;8.796;2023-06-14T02:10:01;13.00;;;5.93;;
3068;SDS011;1545;51.728;8.796;2023-06-14T02:12:27;16.57;;;6.43;;
3068;SDS011;1545;51.728;8.796;2023-06-14T02:14:53;15.90;;;6.20;;
3068;SDS011;1545;51.728;8.796;2023-06-14T02:17:19;7.93;;;5.63;;
3068;SDS011;1545;51.728;8.796;2023-06-14T02:19:45;8.40;;;5.80;;
3068;SDS011;1545;51.728;8.796;2023-06-14T02:22:10;11.70;;;6.47;;
3068;SDS011;1545;51.728;8.796;2023-06-14T02:24:36;21.27;;;6.63;;
3068;SDS011;1545;51.728;8.796;2023-06-14T02:27:03;20.93;;;5.97;;
3068;SDS011;1545;51.728;8.796;2023-06-14T02:29:29;12.93;;;5.80;;
3068;SDS011;1545;51.728;8.796;2023-06-14T02:31:54;9.43;;;5.67;;
3068;SDS011;1545;51.728;8.796;2023-06-14T02:34:20;10.80;;;5.90;;
3068;SDS011;1545;51.728;8.796;2023-06-14T02:36:46;8.83;;;5.97;;
3068;SDS011;1545;51.728;8.796;2023-06-14T02:39:12;14.73;;;6.10;;
3068;SDS011;1545;51.728;8.796;2023-06-14T02:41:38;15.90;;;6.63;;
3068;SDS011;1545;51.728;8.796;2023-06-14T02:44:04;9.27;;;5.97;;
3068;SDS011;1545;51.728;8.796;2023-06-14T02:46:30;11.43;;;5.87;;
3068;SDS011;1545;51.728;8.796;2023-06-14T02:48:55;13.00;;;6.50;;
3068;SDS011;1545;51.728;8.796;2023-06-14T02:51:21;13.77;;;6.90;;
3068;SDS011;1545;51.728;8.796;2023-06-14T02:53:47;14.30;;;6.70;;
3068;SDS011;1545;51.728;8.796;2023-06-14T02:56:12;8.40;;;6.50;;
3068;SDS011;1545;51.728;8.796;2023-06-14T02:58:38;15.57;;;6.30;;
3068;SDS011;1545;51.728;8.796;2023-06-14T03:01:04;10.87;;;6.37;;
3068;SDS011;1545;51.728;8.796;2023-06-14T03:03:32;10.13;;;6.60;;
3068;SDS011;1545;51.728;8.796;2023-06-14T03:05:58;12.30;;;6.73;;
3068;SDS011;1545;51.728;8.796;2023-06-14T03:08:29;11.90;;;7.33;;
3068;SDS011;1545;51.728;8.796;2023-06-14T03:11:03;11.07;;;7.10;;
3068;SDS011;1545;51.728;8.796;2023-06-14T03:13:30;11.37;;;6.83;;
3068;SDS011;1545;51.728;8.796;2023-06-14T03:15:57;16.87;;;7.20;;
3068;SDS011;1545;51.728;8.796;2023-06-14T03:18:22;13.37;;;7.13;;
3068;SDS011;1545;51.728;8.796;2023-06-14T03:20:48;13.13;;;6.90;;
3068;SDS011;1545;51.728;8.796;2023-06-14T03:23:14;15.03;;;7.77;;
3068;SDS011;1545;51.728;8.796;2023-06-14T03:25:39;11.03;;;7.07;;
3068;SDS011;1545;51.728;8.796;2023-06-14T03:28:07;10.40;;;6.73;;
3068;SDS011;1545;51.728;8.796;2023-06-14T03:30:32;23.87;;;6.70;;
3068;SDS011;1545;51.728;8.796;2023-06-14T03:32:58;13.13;;;6.97;;
3068;SDS011;1545;51.728;8.796;2023-06-14T03:35:26;14.83;;;6.93;;
3068;SDS011;1545;51.728;8.796;2023-06-14T03:37:53;10.27;;;6.43;;
3068;SDS011;1545;51.728;8.796;2023-06-14T03:40:20;14.63;;;5.87;;
3068;SDS011;1545;51.728;8.796;2023-06-14T03:42:46;18.67;;;6.53;;
3068;SDS011;1545;51.728;8.796;2023-06-14T03:45:12;11.70;;;6.80;;
3068;SDS011;1545;51.728;8.796;2023-06-14T03:47:37;9.50;;;6.40;;
3068;SDS011;1545;51.728;8.796;2023-06-14T03:50:03;11.57;;;6.40;;
3068;SDS011;1545;51.728;8.796;2023-06-14T03:52:29;11.67;;;6.47;;
3068;SDS011;1545;51.728;8.796;2023-06-14T03:54:56;11.67;;;6.83;;
3068;SDS011;1545;51.728;8.796;2023-06-14T03:57:22;10.73;;;6.50;;
3068;SDS011;1545;51.728;8.796;2023-06-14T03:59:48;10.20;;;6.30;;
3068;SDS011;1545;51.728;8.796;2023-06-14T04:02:14;10.93;;;6.40;;
3068;SDS011;1545;51.728;8.796;2023-06-14T04:04:40;12.20;;;5.77;;
3068;SDS011;1545;51.728;8.796;2023-06-14T04:07:09;12.97;;;6.27;;
3068;SDS011;1545;51.728;8.796;2023-06-14T04:09:35;10.53;;;6.40;;
3068;SDS011;1545;51.728;8.796;2023-06-14T04:12:00;10.20;;;6.17;;
3068;SDS011;1545;51.728;8.796;2023-06-14T04:14:26;17.13;;;5.97;;
3068;SDS011;1545;51.728;8.796;2023-06-14T04:16:51;13.07;;;5.97;;
3068;SDS011;1545;51.728;8.796;2023-06-14T04:19:17;8.00;;;5.00;;
3068;SDS011;1545;51.728;8.796;2023-06-14T04:21:42;7.00;;;5.30;;
3068;SDS011;1545;51.728;8.796;2023-06-14T04:24:08;10.33;;;5.50;;
3068;SDS011;1545;51.728;8.796;2023-06-14T04:26:37;10.77;;;5.00;;
3068;SDS011;1545;51.728;8.796;2023-06-14T04:29:04;10.53;;;4.80;;
3068;SDS011;1545;51.728;8.796;2023-06-14T04:31:30;11.30;;;5.00;;
3068;SDS011;1545;51.728;8.796;2023-06-14T04:33:58;7.87;;;5.03;;
3068;SDS011;1545;51.728;8.796;2023-06-14T04:36:24;15.30;;;4.53;;
3068;SDS011;1545;51.728;8.796;2023-06-14T04:38:52;8.23;;;4.33;;
3068;SDS011;1545;51.728;8.796;2023-06-14T04:41:20;9.98;;;4.40;;
3068;SDS011;1545;51.728;8.796;2023-06-14T04:43:47;9.23;;;4.25;;
3068;SDS011;1545;51.728;8.796;2023-06-14T04:46:14;11.68;;;4.20;;
3068;SDS011;1545;51.728;8.796;2023-06-14T04:48:40;8.43;;;3.88;;
3068;SDS011;1545;51.728;8.796;2023-06-14T04:51:07;6.82;;;4.07;;
3068;SDS011;1545;51.728;8.796;2023-06-14T04:53:33;7.57;;;4.53;;
3068;SDS011;1545;51.728;8.796;2023-06-14T04:55:59;12.68;;;4.20;;
3068;SDS011;1545;51.728;8.796;2023-06-14T04:58:25;4.60;;;4.07;;
3068;SDS011;1545;51.728;8.796;2023-06-14T05:00:52;10.27;;;4.47;;
3068;SDS011;1545;51.728;8.796;2023-06-14T05:03:18;10.23;;;4.10;;
3068;SDS011;1545;51.728;8.796;2023-06-14T05:05:45;10.70;;;4.10;;
3068;SDS011;1545;51.728;8.796;2023-06-14T05:08:11;5.88;;;3.95;;
3068;SDS011;1545;51.728;8.796;2023-06-14T05:10:37;9.30;;;4.20;;
3068;SDS011;1545;51.728;8.796;2023-06-14T05:13:03;10.60;;;3.80;;
3068;SDS011;1545;51.728;8.796;2023-06-14T05:15:28;9.93;;;3.92;;
3068;SDS011;1545;51.728;8.796;2023-06-14T05:17:54;13.02;;;4.00;;
3068;SDS011;1545;51.728;8.796;2023-06-14T05:20:23;6.65;;;4.35;;
3068;SDS011;1545;51.728;8.796;2023-06-14T05:22:50;9.30;;;3.85;;
3068;SDS011;1545;51.728;8.796;2023-06-14T05:25:17;8.57;;;4.03;;
3068;SDS011;1545;51.728;8.796;2023-06-14T05:27:44;8.45;;;3.67;;
3068;SDS011;1545;51.728;8.796;2023-06-14T05:30:09;10.68;;;3.97;;
3068;SDS011;1545;51.728;8.796;2023-06-14T05:32:35;10.07;;;4.43;;
3068;SDS011;1545;51.728;8.796;2023-06-14T05:35:01;5.95;;;3.42;;
3068;SDS011;1545;51.728;8.796;2023-06-14T05:37:26;6.70;;;3.40;;
3068;SDS011;1545;51.728;8.796;2023-06-14T05:39:52;13.75;;;3.47;;
3068;SDS011;1545;51.728;8.796;2023-06-14T05:42:17;4.78;;;3.40;;
3068;SDS011;1545;51.728;8.796;2023-06-14T05:44:43;14.23;;;3.60;;
3068;SDS011;1545;51.728;8.796;2023-06-14T05:47:08;6.55;;;3.50;;
3068;SDS011;1545;51.728;8.796;2023-06-14T05:49:34;4.68;;;3.42;;
3068;SDS011;1545;51.728;8.796;2023-06-14T05:51:59;6.32;;;3.70;;
3068;SDS011;1545;51.728;8.796;2023-06-14T05:54:24;4.85;;;3.25;;
3068;SDS011;1545;51.728;8.796;2023-06-14T05:56:50;7.18;;;3.65;;
3068;SDS011;1545;51.728;8.796;2023-06-14T05:59:16;6.45;;;3.28;;
3068;SDS011;1545;51.728;8.796;2023-06-14T06:01:41;3.53;;;2.97;;
3068;SDS011;1545;51.728;8.796;2023-06-14T06:04:07;5.72;;;3.30;;
3068;SDS011;1545;51.728;8.796;2023-06-14T06:06:32;8.77;;;3.65;;
3068;SDS011;1545;51.728;8.796;2023-06-14T06:08:58;7.20;;;3.22;;
3068;SDS011;1545;51.728;8.796;2023-06-14T06:11:23;16.98;;;3.30;;
3068;SDS011;1545;51.728;8.796;2023-06-14T06:13:49;5.13;;;3.30;;
3068;SDS011;1545;51.728;8.796;2023-06-14T06:16:15;7.30;;;3.17;;
3068;SDS011;1545;51.728;8.796;2023-06-14T06:18:41;4.50;;;3.30;;
3068;SDS011;1545;51.728;8.796;2023-06-14T06:21:06;7.50;;;3.15;;
3068;SDS011;1545;51.728;8.796;2023-06-14T06:23:32;7.85;;;3.60;;
3068;SDS011;1545;51.728;8.796;2023-06-14T06:25:57;5.50;;;3.17;;
3068;SDS011;1545;51.728;8.796;2023-06-14T06:28:23;3.58;;;3.00;;
3068;SDS011;1545;51.728;8.796;2023-06-14T06:30:48;3.88;;;3.20;;
3068;SDS011;1545;51.728;8.796;2023-06-14T06:33:15;3.90;;;3.30;;
3068;SDS011;1545;51.728;8.796;2023-06-14T06:35:40;6.22;;;3.67;;
3068;SDS011;1545;51.728;8.796;2023-06-14T06:38:06;7.43;;;3.83;;
3068;SDS011;1545;51.728;8.796;2023-06-14T06:40:32;4.85;;;3.58;;
3068;SDS011;1545;51.728;8.796;2023-06-14T06:42:57;5.40;;;3.85;;
3068;SDS011;1545;51.728;8.796;2023-06-14T06:45:25;5.22;;;3.80;;
3068;SDS011;1545;51.728;8.796;2023-06-14T06:47:50;11.52;;;3.60;;
3068;SDS011;1545;51.728;8.796;2023-06-14T06:50:17;6.82;;;3.80;;
3068;SDS011;1545;51.728;8.796;2023-06-14T06:52:43;3.75;;;3.10;;
3068;SDS011;1545;51.728;8.796;2023-06-14T06:55:10;3.75;;;3.00;;
3068;SDS011;1545;51.728;8.796;2023-06-14T06:57:36;19.42;;;3.78;;
3068;SDS011;1545;51.728;8.796;2023-06-14T07:00:02;4.07;;;3.83;;
3068;SDS011;1545;51.728;8.796;2023-06-14T07:02:31;8.65;;;3.80;;
3068;SDS011;1545;51.728;8.796;2023-06-14T07:04:56;8.90;;;3.63;;
3068;SDS011;1545;51.728;8.796;2023-06-14T07:07:21;9.00;;;3.83;;
3068;SDS011;1545;51.728;8.796;2023-06-14T07:09:47;4.95;;;3.70;;
3068;SDS011;1545;51.728;8.796;2023-06-14T07:12:12;4.63;;;3.40;;
3068;SDS011;1545;51.728;8.796;2023-06-14T07:14:38;7.25;;;3.40;;
3068;SDS011;1545;51.728;8.796;2023-06-14T07:17:03;4.80;;;3.30;;
3068;SDS011;1545;51.728;8.796;2023-06-14T07:19:29;9.02;;;3.70;;
3068;SDS011;1545;51.728;8.796;2023-06-14T07:21:55;5.47;;;3.53;;
3068;SDS011;1545;51.728;8.796;2023-06-14T07:24:21;9.52;;;3.88;;
3068;SDS011;1545;51.728;8.796;2023-06-14T07:26:46;14.27;;;3.88;;
3068;SDS011;1545;51.728;8.796;2023-06-14T07:29:13;7.65;;;3.95;;
3068;SDS011;1545;51.728;8.796;2023-06-14T07:31:39;33.70;;;5.15;;
3068;SDS011;1545;51.728;8.796;2023-06-14T07:34:04;7.00;;;3.30;;
3068;SDS011;1545;51.728;8.796;2023-06-14T07:36:30;3.92;;;3.28;;
3068;SDS011;1545;51.728;8.796;2023-06-14T07:38:55;3.40;;;2.75;;
3068;SDS011;1545;51.728;8.796;2023-06-14T07:41:21;10.10;;;3.53;;
3068;SDS011;1545;51.728;8.796;2023-06-14T07:43:46;5.10;;;3.85;;
3068;SDS011;1545;51.728;8.796;2023-06-14T07:46:12;4.10;;;3.22;;
3068;SDS011;1545;51.728;8.796;2023-06-14T07:48:38;7.43;;;3.85;;
3068;SDS011;1545;51.728;8.796;2023-06-14T07:51:03;5.50;;;3.75;;
3068;SDS011;1545;51.728;8.796;2023-06-14T07:53:29;5.30;;;3.47;;
3068;SDS011;1545;51.728;8.796;2023-06-14T07:55:55;8.40;;;3.83;;
3068;SDS011;1545;51.728;8.796;2023-06-14T07:58:21;9.10;;;4.20;;
3068;SDS011;1545;51.728;8.796;2023-06-14T08:00:47;7.87;;;3.90;;
3068;SDS011;1545;51.728;8.796;2023-06-14T08:03:12;22.13;;;4.50;;
3068;SDS011;1545;51.728;8.796;2023-06-14T08:05:38;6.93;;;4.40;;
3068;SDS011;1545;51.728;8.796;2023-06-14T08:08:03;7.30;;;4.20;;
3068;SDS011;1545;51.728;8.796;2023-06-14T08:10:29;7.73;;;4.40;;
3068;SDS011;1545;51.728;8.796;2023-06-14T08:12:54;9.20;;;3.90;;
3068;SDS011;1545;51.728;8.796;2023-06-14T08:15:20;5.80;;;4.20;;
3068;SDS011;1545;51.728;8.796;2023-06-14T08:17:45;5.67;;;4.23;;
3068;SDS011;1545;51.728;8.796;2023-06-14T08:20:11;7.90;;;4.10;;
3068;SDS011;1545;51.728;8.796;2023-06-14T08:22:38;9.10;;;4.53;;
3068;SDS011;1545;51.728;8.796;2023-06-14T08:25:07;9.33;;;4.60;;
3068;SDS011;1545;51.728;8.796;2023-06-14T08:27:33;7.93;;;4.37;;
3068;SDS011;1545;51.728;8.796;2023-06-14T08:29:58;6.50;;;4.30;;
3068;SDS011;1545;51.728;8.796;2023-06-14T08:32:23;15.10;;;5.03;;
3068;SDS011;1545;51.728;8.796;2023-06-14T08:34:49;6.05;;;4.60;;
3068;SDS011;1545;51.728;8.796;2023-06-14T08:37:15;13.65;;;4.75;;
3068;SDS011;1545;51.728;8.796;2023-06-14T08:39:40;11.83;;;4.50;;
3068;SDS011;1545;51.728;8.796;2023-06-14T08:42:06;6.10;;;4.80;;
3068;SDS011;1545;51.728;8.796;2023-06-14T08:44:33;42.23;;;17.70;;
3068;SDS011;1545;51.728;8.796;2023-06-14T08:46:59;7.45;;;5.78;;
3068;SDS011;1545;51.728;8.796;2023-06-14T08:49:25;8.63;;;4.97;;
3068;SDS011;1545;51.728;8.796;2023-06-14T08:51:53;5.20;;;4.30;;
3068;SDS011;1545;51.728;8.796;2023-06-14T08:54:22;5.97;;;4.63;;
3068;SDS011;1545;51.728;8.796;2023-06-14T08:56:49;8.60;;;4.72;;
3068;SDS011;1545;51.728;8.796;2023-06-14T08:59:16;7.70;;;4.78;;
3068;SDS011;1545;51.728;8.796;2023-06-14T09:01:43;9.93;;;4.82;;
3068;SDS011;1545;51.728;8.796;2023-06-14T09:04:10;8.27;;;5.00;;
3068;SDS011;1545;51.728;8.796;2023-06-14T09:06:35;14.53;;;5.47;;
3068;SDS011;1545;51.728;8.796;2023-06-14T09:09:02;9.67;;;4.97;;
3068;SDS011;1545;51.728;8.796;2023-06-14T09:11:29;6.40;;;4.70;;
3068;SDS011;1545;51.728;8.796;2023-06-14T09:13:55;8.43;;;4.83;;
3068;SDS011;1545;51.728;8.796;2023-06-14T09:16:21;11.00;;;5.03;;
3068;SDS011;1545;51.728;8.796;2023-06-14T09:18:47;14.27;;;4.80;;
3068;SDS011;1545;51.728;8.796;2023-06-14T09:21:13;6.75;;;5.10;;
3068;SDS011;1545;51.728;8.796;2023-06-14T09:23:41;6.40;;;4.68;;
3068;SDS011;1545;51.728;8.796;2023-06-14T09:26:11;5.10;;;4.60;;
3068;SDS011;1545;51.728;8.796;2023-06-14T09:28:44;6.13;;;4.47;;
3068;SDS011;1545;51.728;8.796;2023-06-14T09:31:12;7.88;;;4.20;;
3068;SDS011;1545;51.728;8.796;2023-06-14T09:33:38;5.20;;;4.75;;
3068;SDS011;1545;51.728;8.796;2023-06-14T09:36:09;10.93;;;4.70;;
3068;SDS011;1545;51.728;8.796;2023-06-14T09:38:38;11.05;;;4.82;;
3068;SDS011;1545;51.728;8.796;2023-06-14T09:41:05;7.00;;;4.55;;
3068;SDS011;1545;51.728;8.796;2023-06-14T09:43:31;6.78;;;4.80;;
3068;SDS011;1545;51.728;8.796;2023-06-14T09:45:58;9.23;;;4.85;;
3068;SDS011;1545;51.728;8.796;2023-06-14T09:48:25;9.70;;;5.13;;
3068;SDS011;1545;51.728;8.796;2023-06-14T09:50:51;6.70;;;5.10;;
3068;SDS011;1545;51.728;8.796;2023-06-14T09:53:21;10.90;;;5.00;;
3068;SDS011;1545;51.728;8.796;2023-06-14T09:55:50;6.83;;;5.03;;
3068;SDS011;1545;51.728;8.796;2023-06-14T09:58:19;5.40;;;4.43;;
3068;SDS011;1545;51.728;8.796;2023-06-14T10:00:46;9.17;;;4.63;;
3068;SDS011;1545;51.728;8.796;2023-06-14T10:03:16;5.93;;;5.00;;
3068;SDS011;1545;51.728;8.796;2023-06-14T10:05:48;5.83;;;4.73;;
3068;SDS011;1545;51.728;8.796;2023-06-14T10:08:16;7.60;;;5.20;;
3068;SDS011;1545;51.728;8.796;2023-06-14T10:10:45;7.57;;;4.80;;
3068;SDS011;1545;51.728;8.796;2023-06-14T10:13:11;12.37;;;4.80;;
3068;SDS011;1545;51.728;8.796;2023-06-14T10:15:42;8.73;;;5.23;;
3068;SDS011;1545;51.728;8.796;2023-06-14T10:24:03;8.93;;;4.70;;
3068;SDS011;1545;51.728;8.796;2023-06-14T10:26:31;6.83;;;4.70;;
3068;SDS011;1545;51.728;8.796;2023-06-14T10:29:01;7.03;;;5.10;;
3068;SDS011;1545;51.728;8.796;2023-06-14T10:31:41;6.97;;;5.37;;
3068;SDS011;1545;51.728;8.796;2023-06-14T10:34:21;8.43;;;4.83;;
3068;SDS011;1545;51.728;8.796;2023-06-14T10:37:24;6.80;;;4.70;;
3068;SDS011;1545;51.728;8.796;2023-06-14T10:39:44;9.67;;;4.50;;
3068;SDS011;1545;51.728;8.796;2023-06-14T10:42:10;7.27;;;4.90;;
3068;SDS011;1545;51.728;8.796;2023-06-14T10:52:40;7.23;;;4.80;;
3068;SDS011;1545;51.728;8.796;2023-06-14T10:55:07;13.37;;;5.27;;
3068;SDS011;1545;51.728;8.796;2023-06-14T10:57:36;7.00;;;5.10;;
3068;SDS011;1545;51.728;8.796;2023-06-14T11:00:03;6.00;;;5.00;;
3068;SDS011;1545;51.728;8.796;2023-06-14T11:05:10;6.13;;;4.70;;
3068;SDS011;1545;51.728;8.796;2023-06-14T11:10:53;5.80;;;5.10;;
3068;SDS011;1545;51.728;8.796;2023-06-14T11:13:24;9.10;;;5.30;;
3068;SDS011;1545;51.728;8.796;2023-06-14T11:15:50;8.23;;;5.30;;
3068;SDS011;1545;51.728;8.796;2023-06-14T11:18:18;8.33;;;4.83;;
3068;SDS011;1545;51.728;8.796;2023-06-14T11:20:45;9.10;;;5.23;;
3068;SDS011;1545;51.728;8.796;2023-06-14T11:23:11;11.00;;;5.10;;
3068;SDS011;1545;51.728;8.796;2023-06-14T11:25:37;7.57;;;4.90;;
3068;SDS011;1545;51.728;8.796;2023-06-14T11:28:02;8.27;;;5.30;;
3068;SDS011;1545;51.728;8.796;2023-06-14T11:30:28;6.53;;;4.90;;
3068;SDS011;1545;51.728;8.796;2023-06-14T11:32:54;7.03;;;4.70;;
3068;SDS011;1545;51.728;8.796;2023-06-14T11:35:23;14.73;;;5.50;;
3068;SDS011;1545;51.728;8.796;2023-06-14T11:37:52;16.07;;;5.50;;
3068;SDS011;1545;51.728;8.796;2023-06-14T11:40:20;6.97;;;5.20;;
3068;SDS011;1545;51.728;8.796;2023-06-14T11:42:49;7.60;;;5.30;;
3068;SDS011;1545;51.728;8.796;2023-06-14T11:45:14;7.47;;;4.83;;
3068;SDS011;1545;51.728;8.796;2023-06-14T11:47:40;10.33;;;5.37;;
3068;SDS011;1545;51.728;8.796;2023-06-14T11:50:06;10.33;;;4.97;;
3068;SDS011;1545;51.728;8.796;2023-06-14T11:52:36;9.80;;;5.20;;
3068;SDS011;1545;51.728;8.796;2023-06-14T11:55:02;7.13;;;5.00;;
3068;SDS011;1545;51.728;8.796;2023-06-14T11:57:34;8.43;;;5.07;;
3068;SDS011;1545;51.728;8.796;2023-06-14T12:00:04;8.80;;;5.23;;
3068;SDS011;1545;51.728;8.796;2023-06-14T12:02:37;9.13;;;5.33;;
3068;SDS011;1545;51.728;8.796;2023-06-14T12:05:04;9.30;;;4.93;;
3068;SDS011;1545;51.728;8.796;2023-06-14T12:07:35;7.10;;;5.07;;
3068;SDS011;1545;51.728;8.796;2023-06-14T12:12:28;9.57;;;4.83;;
3068;SDS011;1545;51.728;8.796;2023-06-14T12:14:57;8.87;;;5.60;;
3068;SDS011;1545;51.728;8.796;2023-06-14T12:17:22;7.97;;;5.23;;
3068;SDS011;1545;51.728;8.796;2023-06-14T12:19:48;12.17;;;4.97;;
3068;SDS011;1545;51.728;8.796;2023-06-14T12:22:15;11.07;;;4.63;;
3068;SDS011;1545;51.728;8.796;2023-06-14T12:24:44;12.90;;;5.67;;
3068;SDS011;1545;51.728;8.796;2023-06-14T12:27:11;7.03;;;5.00;;
3068;SDS011;1545;51.728;8.796;2023-06-14T12:29:40;6.90;;;4.93;;
3068;SDS011;1545;51.728;8.796;2023-06-14T12:32:08;9.63;;;4.70;;
3068;SDS011;1545;51.728;8.796;2023-06-14T12:34:34;6.53;;;4.60;;
3068;SDS011;1545;51.728;8.796;2023-06-14T12:37:00;6.93;;;4.70;;
3068;SDS011;1545;51.728;8.796;2023-06-14T12:39:26;8.03;;;4.80;;
3068;SDS011;1545;51.728;8.796;2023-06-14T12:41:52;11.10;;;5.23;;
3068;SDS011;1545;51.728;8.796;2023-06-14T12:44:18;10.20;;;5.13;;
3068;SDS011;1545;51.728;8.796;2023-06-14T12:46:44;13.67;;;5.03;;
3068;SDS011;1545;51.728;8.796;2023-06-14T12:49:10;9.77;;;4.70;;
3068;SDS011;1545;51.728;8.796;2023-06-14T12:51:37;10.50;;;4.57;;
3068;SDS011;1545;51.728;8.796;2023-06-14T12:54:03;7.10;;;4.60;;
3068;SDS011;1545;51.728;8.796;2023-06-14T12:56:29;8.70;;;4.40;;
3068;SDS011;1545;51.728;8.796;2023-06-14T12:58:54;12.03;;;4.60;;
3068;SDS011;1545;51.728;8.796;2023-06-14T13:01:20;5.07;;;4.10;;
3068;SDS011;1545;51.728;8.796;2023-06-14T13:03:46;11.97;;;4.53;;
3068;SDS011;1545;51.728;8.796;2023-06-14T13:06:12;12.50;;;4.80;;
3068;SDS011;1545;51.728;8.796;2023-06-14T13:08:38;10.83;;;4.90;;
3068;SDS011;1545;51.728;8.796;2023-06-14T13:11:03;8.47;;;4.13;;
3068;SDS011;1545;51.728;8.796;2023-06-14T13:13:29;6.70;;;4.70;;
3068;SDS011;1545;51.728;8.796;2023-06-14T13:15:54;7.27;;;4.43;;
3068;SDS011;1545;51.728;8.796;2023-06-14T13:18:20;7.20;;;4.60;;
3068;SDS011;1545;51.728;8.796;2023-06-14T13:20:46;7.23;;;4.90;;
3068;SDS011;1545;51.728;8.796;2023-06-14T13:23:12;8.87;;;4.60;;
3068;SDS011;1545;51.728;8.796;2023-06-14T13:25:38;5.60;;;4.57;;
3068;SDS011;1545;51.728;8.796;2023-06-14T13:28:04;5.70;;;4.13;;
3068;SDS011;1545;51.728;8.796;2023-06-14T13:30:30;5.17;;;4.30;;
3068;SDS011;1545;51.728;8.796;2023-06-14T13:32:56;4.97;;;4.20;;
3068;SDS011;1545;51.728;8.796;2023-06-14T13:35:22;9.40;;;4.40;;
3068;SDS011;1545;51.728;8.796;2023-06-14T13:37:48;5.20;;;4.50;;
3068;SDS011;1545;51.728;8.796;2023-06-14T13:40:14;5.87;;;4.17;;
3068;SDS011;1545;51.728;8.796;2023-06-14T13:42:39;5.53;;;4.27;;
3068;SDS011;1545;51.728;8.796;2023-06-14T13:45:05;10.90;;;4.80;;
3068;SDS011;1545;51.728;8.796;2023-06-14T13:47:31;5.60;;;4.00;;
3068;SDS011;1545;51.728;8.796;2023-06-14T13:49:57;8.40;;;4.10;;
3068;SDS011;1545;51.728;8.796;2023-06-14T13:52:23;6.33;;;4.33;;
3068;SDS011;1545;51.728;8.796;2023-06-14T13:54:49;6.77;;;4.23;;
3068;SDS011;1545;51.728;8.796;2023-06-14T13:57:15;5.40;;;4.13;;
3068;SDS011;1545;51.728;8.796;2023-06-14T13:59:41;11.20;;;4.53;;
3068;SDS011;1545;51.728;8.796;2023-06-14T14:02:08;7.20;;;4.40;;
3068;SDS011;1545;51.728;8.796;2023-06-14T14:04:35;4.33;;;4.00;;
3068;SDS011;1545;51.728;8.796;2023-06-14T14:07:01;7.20;;;4.03;;
3068;SDS011;1545;51.728;8.796;2023-06-14T14:09:28;13.00;;;4.20;;
3068;SDS011;1545;51.728;8.796;2023-06-14T14:11:53;10.77;;;4.27;;
3068;SDS011;1545;51.728;8.796;2023-06-14T14:14:19;7.27;;;4.07;;
3068;SDS011;1545;51.728;8.796;2023-06-14T14:16:45;8.97;;;4.20;;
3068;SDS011;1545;51.728;8.796;2023-06-14T14:19:10;6.93;;;4.00;;
3068;SDS011;1545;51.728;8.796;2023-06-14T14:21:36;6.83;;;4.00;;
3068;SDS011;1545;51.728;8.796;2023-06-14T14:24:02;8.07;;;4.13;;
3068;SDS011;1545;51.728;8.796;2023-06-14T14:26:28;5.33;;;3.80;;
3068;SDS011;1545;51.728;8.796;2023-06-14T14:28:54;6.17;;;3.90;;
3068;SDS011;1545;51.728;8.796;2023-06-14T14:31:19;12.80;;;4.00;;
3068;SDS011;1545;51.728;8.796;2023-06-14T14:33:45;5.13;;;3.90;;
3068;SDS011;1545;51.728;8.796;2023-06-14T14:36:10;7.80;;;3.97;;
3068;SDS011;1545;51.728;8.796;2023-06-14T14:38:36;6.03;;;4.10;;
3068;SDS011;1545;51.728;8.796;2023-06-14T14:41:01;7.20;;;4.33;;
3068;SDS011;1545;51.728;8.796;2023-06-14T14:43:27;4.67;;;3.80;;
3068;SDS011;1545;51.728;8.796;2023-06-14T14:45:56;7.27;;;4.20;;
3068;SDS011;1545;51.728;8.796;2023-06-14T14:48:22;8.07;;;4.03;;
3068;SDS011;1545;51.728;8.796;2023-06-14T14:50:47;6.10;;;4.17;;
3068;SDS011;1545;51.728;8.796;2023-06-14T14:53:13;6.10;;;4.10;;
3068;SDS011;1545;51.728;8.796;2023-06-14T14:55:41;10.40;;;4.20;;
3068;SDS011;1545;51.728;8.796;2023-06-14T14:58:07;7.00;;;4.27;;
3068;SDS011;1545;51.728;8.796;2023-06-14T15:00:33;11.33;;;4.30;;
3068;SDS011;1545;51.728;8.796;2023-06-14T15:02:59;13.77;;;3.93;;
3068;SDS011;1545;51.728;8.796;2023-06-14T15:05:24;6.93;;;3.80;;
3068;SDS011;1545;51.728;8.796;2023-06-14T15:07:50;6.33;;;4.47;;
3068;SDS011;1545;51.728;8.796;2023-06-14T15:10:15;5.67;;;4.00;;
3068;SDS011;1545;51.728;8.796;2023-06-14T15:12:41;9.40;;;4.30;;
3068;SDS011;1545;51.728;8.796;2023-06-14T15:15:07;7.10;;;3.93;;
3068;SDS011;1545;51.728;8.796;2023-06-14T15:17:34;4.50;;;3.90;;
3068;SDS011;1545;51.728;8.796;2023-06-14T15:19:59;5.23;;;4.00;;
3068;SDS011;1545;51.728;8.796;2023-06-14T15:22:25;6.30;;;4.40;;
3068;SDS011;1545;51.728;8.796;2023-06-14T15:24:51;7.40;;;3.87;;
3068;SDS011;1545;51.728;8.796;2023-06-14T15:27:16;8.57;;;3.93;;
3068;SDS011;1545;51.728;8.796;2023-06-14T15:29:42;6.03;;;4.33;;